Time;durP1;ratioP1;P1;durP2;ratioP2;P2;SDS_P1;SDS_P2;PMS_P1;PMS_P2;Temp;Humidity;BMP_temperature;BMP_pressure;BME280_temperature;BME280_humidity;BME280_pressure;Samples;Min_cycle;Max_cycle;Signal;HPM_P1;HPM_P2
2022/04/04 00:01:51;;;;;;;7.90;4.50;;;1.60;99.90;;;;;;4438256;32;20233;-69
2022/04/04 00:04:20;;;;;;;8.17;4.17;;;1.60;99.90;;;;;;4438153;32;20342;-69
2022/04/04 00:06:47;;;;;;;8.37;3.97;;;1.50;99.90;;;;;;4439366;32;20163;-69
2022/04/04 00:09:14;;;;;;;6.83;4.23;;;1.50;99.90;;;;;;4438214;32;20234;-69
2022/04/04 00:11:41;;;;;;;7.57;4.00;;;1.50;99.90;;;;;;4438193;32;20178;-69
2022/04/04 00:14:10;;;;;;;8.33;3.97;;;1.50;99.90;;;;;;4438175;32;20206;-70
2022/04/04 00:16:37;;;;;;;7.77;4.00;;;1.50;99.90;;;;;;4438739;32;20209;-69
2022/04/04 00:19:05;;;;;;;6.63;4.27;;;1.40;99.90;;;;;;4438140;32;20177;-70
2022/04/04 00:21:33;;;;;;;11.50;4.37;;;1.40;99.90;;;;;;4437610;32;20241;-70
2022/04/04 00:24:00;;;;;;;8.93;4.40;;;1.40;99.90;;;;;;4437950;32;20197;-69
2022/04/04 00:26:27;;;;;;;10.50;4.40;;;1.40;99.90;;;;;;4412349;32;20242;-69
2022/04/04 00:28:55;;;;;;;10.50;4.67;;;1.40;99.90;;;;;;4438341;32;20237;-69
2022/04/04 00:31:22;;;;;;;9.40;4.53;;;1.30;99.90;;;;;;4438360;32;20174;-69
2022/04/04 00:33:49;;;;;;;9.43;4.53;;;1.30;99.90;;;;;;4437910;32;20517;-69
2022/04/04 00:36:16;;;;;;;9.70;4.60;;;1.30;99.90;;;;;;4438939;32;20479;-69
2022/04/04 00:38:44;;;;;;;8.37;4.47;;;1.30;99.90;;;;;;4437512;32;20178;-70
2022/04/04 00:41:13;;;;;;;9.10;4.23;;;1.30;99.90;;;;;;4438163;32;20185;-69
2022/04/04 00:43:42;;;;;;;8.93;4.70;;;1.30;99.90;;;;;;4439273;32;20174;-69
2022/04/04 00:46:09;;;;;;;8.80;4.10;;;1.30;99.90;;;;;;4447509;32;20236;-69
2022/04/04 00:48:36;;;;;;;10.90;4.60;;;1.20;99.90;;;;;;4454613;32;20483;-69
2022/04/04 00:51:04;;;;;;;8.10;4.37;;;1.10;99.90;;;;;;4454161;32;20173;-70
2022/04/04 00:53:31;;;;;;;12.33;4.57;;;1.00;99.90;;;;;;4453433;32;20476;-69
2022/04/04 00:55:59;;;;;;;8.50;4.53;;;1.00;99.90;;;;;;4454601;32;20474;-69
2022/04/04 00:58:32;;;;;;;10.97;4.40;;;0.90;99.90;;;;;;4453128;32;20542;-69
2022/04/04 01:01:00;;;;;;;8.17;4.20;;;0.90;99.90;;;;;;4453602;32;20443;-69
2022/04/04 01:03:27;;;;;;;10.13;4.57;;;0.90;99.90;;;;;;4454587;32;20165;-69
2022/04/04 01:05:57;;;;;;;9.10;4.07;;;0.80;99.90;;;;;;4453328;32;20452;-69
2022/04/04 01:08:25;;;;;;;9.83;4.40;;;0.80;99.90;;;;;;4453913;32;20150;-69
2022/04/04 01:10:53;;;;;;;8.53;4.27;;;0.70;99.90;;;;;;4454624;32;20417;-69
2022/04/04 01:13:20;;;;;;;8.30;3.90;;;0.60;99.90;;;;;;4453185;32;20289;-69
2022/04/04 01:15:48;;;;;;;10.83;4.70;;;0.60;99.90;;;;;;4453615;32;20174;-69
2022/04/04 01:18:15;;;;;;;9.17;4.40;;;0.60;99.90;;;;;;4452066;32;20517;-69
2022/04/04 01:20:42;;;;;;;7.73;4.60;;;0.50;99.90;;;;;;4455622;32;20191;-69
2022/04/04 01:23:15;;;;;;;9.27;4.70;;;0.50;99.90;;;;;;4453570;32;20205;-69
2022/04/04 01:25:43;;;;;;;10.60;4.83;;;0.40;99.90;;;;;;4456723;32;20393;-69
2022/04/04 01:28:11;;;;;;;9.27;4.40;;;0.30;99.90;;;;;;4454732;32;20178;-69
2022/04/04 01:30:38;;;;;;;8.87;4.93;;;0.30;99.90;;;;;;4456029;32;20519;-69
2022/04/04 01:33:05;;;;;;;10.90;4.70;;;0.30;99.90;;;;;;4457268;32;20177;-69
2022/04/04 01:35:33;;;;;;;8.07;4.80;;;0.30;99.90;;;;;;4455713;32;20559;-69
2022/04/04 01:38:01;;;;;;;11.13;4.80;;;0.20;99.90;;;;;;4456266;32;20203;-69
2022/04/04 01:40:28;;;;;;;9.40;4.77;;;0.20;99.90;;;;;;4455300;32;20527;-69
2022/04/04 01:42:56;;;;;;;9.63;4.93;;;0.10;99.90;;;;;;4457104;32;20223;-69
2022/04/04 01:48:10;;;;;;;8.57;4.20;;;0.10;99.90;;;;;;4454482;32;20176;-70
2022/04/04 01:50:38;;;;;;;9.07;4.50;;;0.00;99.90;;;;;;4456993;32;20145;-70
2022/04/04 01:55:53;;;;;;;10.40;4.83;;;0.00;99.90;;;;;;4458397;32;20459;-69
2022/04/04 01:58:20;;;;;;;10.90;5.30;;;-0.10;99.90;;;;;;4454520;32;20562;-69
2022/04/04 02:00:47;;;;;;;7.47;4.27;;;-0.10;99.90;;;;;;4455498;32;20268;-69
2022/04/04 02:03:15;;;;;;;7.87;4.67;;;-0.20;99.90;;;;;;4455300;32;20553;-69
2022/04/04 02:05:43;;;;;;;10.20;5.20;;;-0.20;99.90;;;;;;4456734;32;20185;-69
2022/04/04 02:08:10;;;;;;;8.90;4.90;;;-0.20;99.90;;;;;;4454353;32;20221;-69
2022/04/04 02:10:38;;;;;;;9.53;4.90;;;-0.30;99.90;;;;;;4456491;32;20197;-69
2022/04/04 02:13:05;;;;;;;10.87;4.93;;;-0.30;99.90;;;;;;4455093;32;20482;-69
2022/04/04 02:15:32;;;;;;;9.23;5.13;;;-0.20;99.90;;;;;;4456913;32;20195;-69
2022/04/04 02:17:59;;;;;;;10.27;4.90;;;-0.30;99.90;;;;;;4455325;32;20448;-69
2022/04/04 02:20:26;;;;;;;9.67;5.10;;;-0.30;99.90;;;;;;4454996;32;20208;-69
2022/04/04 02:22:53;;;;;;;10.07;5.03;;;-0.30;99.90;;;;;;4454779;32;20600;-69
2022/04/04 02:25:22;;;;;;;8.13;4.50;;;-0.30;99.90;;;;;;4456110;32;20550;-69
2022/04/04 02:27:49;;;;;;;9.80;4.80;;;-0.40;99.90;;;;;;4454224;32;20173;-70
2022/04/04 02:30:16;;;;;;;10.50;5.00;;;-0.40;99.90;;;;;;4454630;32;20211;-70
2022/04/04 02:32:44;;;;;;;7.97;4.87;;;-0.40;99.90;;;;;;4454328;32;20269;-69
2022/04/04 02:35:12;;;;;;;10.43;5.30;;;-0.40;99.90;;;;;;4454440;32;20587;-70
2022/04/04 02:37:39;;;;;;;10.57;5.50;;;-0.40;99.90;;;;;;4454769;32;20202;-69
2022/04/04 02:40:07;;;;;;;10.87;4.67;;;-0.50;99.90;;;;;;4454955;32;20606;-69
2022/04/04 02:42:34;;;;;;;8.30;4.97;;;-0.50;99.90;;;;;;4455016;32;20170;-69
2022/04/04 02:45:02;;;;;;;13.87;5.13;;;-0.50;99.90;;;;;;4455493;32;20173;-69
2022/04/04 02:47:29;;;;;;;9.67;4.93;;;-0.50;99.90;;;;;;4456129;32;20168;-69
2022/04/04 02:49:57;;;;;;;11.30;5.17;;;-0.50;99.90;;;;;;4454508;32;20173;-69
2022/04/04 02:52:24;;;;;;;9.80;4.93;;;-0.60;99.90;;;;;;4456195;32;20170;-70
2022/04/04 02:54:51;;;;;;;10.27;5.13;;;-0.60;99.90;;;;;;4456146;32;20155;-69
2022/04/04 02:57:18;;;;;;;9.83;5.13;;;-0.60;99.90;;;;;;4455676;32;20166;-69
2022/04/04 02:59:45;;;;;;;12.27;5.43;;;-0.60;99.90;;;;;;4453807;32;20566;-69
2022/04/04 03:02:13;;;;;;;10.10;4.47;;;-0.70;99.90;;;;;;4455446;32;20221;-69
2022/04/04 03:04:42;;;;;;;11.07;5.07;;;-0.70;99.90;;;;;;4455513;32;20215;-69
2022/04/04 03:07:10;;;;;;;8.90;4.87;;;-0.70;99.90;;;;;;4454810;32;20231;-69
2022/04/04 03:09:37;;;;;;;10.53;4.83;;;-0.70;99.90;;;;;;4440408;32;20200;-69
2022/04/04 03:12:06;;;;;;;8.87;5.13;;;-0.70;99.90;;;;;;4454055;32;20218;-69
2022/04/04 03:14:34;;;;;;;8.80;4.80;;;-0.70;99.90;;;;;;4454041;32;20384;-69
2022/04/04 03:17:01;;;;;;;8.37;4.67;;;-0.70;99.90;;;;;;4454001;32;20242;-69
2022/04/04 03:19:29;;;;;;;10.73;5.00;;;-0.70;99.90;;;;;;4455504;32;20390;-69
2022/04/04 03:21:57;;;;;;;8.63;4.77;;;-0.80;99.90;;;;;;4455262;32;20153;-68
2022/04/04 03:24:25;;;;;;;10.00;4.77;;;-0.80;99.90;;;;;;4454716;32;20167;-69
2022/04/04 03:26:53;;;;;;;7.83;4.37;;;-0.80;99.90;;;;;;4453820;32;20174;-69
2022/04/04 03:29:20;;;;;;;8.47;4.73;;;-0.80;99.90;;;;;;4453522;32;20189;-69
2022/04/04 03:31:47;;;;;;;10.80;5.23;;;-0.80;99.90;;;;;;4454170;32;20223;-69
2022/04/04 03:34:14;;;;;;;8.97;4.83;;;-0.80;99.90;;;;;;4454917;32;20181;-69
2022/04/04 03:36:42;;;;;;;7.90;4.47;;;-0.80;99.90;;;;;;4453745;32;20237;-69
2022/04/04 03:39:12;;;;;;;9.13;4.50;;;-0.90;99.90;;;;;;4454882;32;20428;-69
2022/04/04 03:41:40;;;;;;;8.23;4.63;;;-0.90;99.90;;;;;;4453750;32;20174;-68
2022/04/04 03:44:08;;;;;;;10.47;4.83;;;-0.90;99.90;;;;;;4455369;32;20197;-69
2022/04/04 03:46:35;;;;;;;9.50;4.90;;;-0.90;99.90;;;;;;4454069;32;20229;-69
2022/04/04 03:49:02;;;;;;;11.60;4.70;;;-0.90;99.90;;;;;;4452982;32;20182;-69
2022/04/04 03:51:30;;;;;;;10.53;4.47;;;-0.90;99.90;;;;;;4454525;32;20154;-69
2022/04/04 03:53:57;;;;;;;9.43;4.67;;;-0.90;99.90;;;;;;4454176;32;20520;-70
2022/04/04 03:56:25;;;;;;;8.47;4.87;;;-0.90;99.90;;;;;;4455340;32;20173;-69
2022/04/04 03:58:54;;;;;;;10.33;4.87;;;-0.90;99.90;;;;;;4456750;32;20213;-69
2022/04/04 04:01:23;;;;;;;8.40;5.00;;;-0.90;99.90;;;;;;4452910;32;20229;-69
2022/04/04 04:03:50;;;;;;;8.57;4.90;;;-0.90;99.90;;;;;;4453439;32;20217;-69
2022/04/04 04:06:17;;;;;;;8.97;4.80;;;-0.80;99.90;;;;;;4455548;32;20162;-69
2022/04/04 04:08:46;;;;;;;9.67;4.93;;;-0.80;99.90;;;;;;4455225;32;20223;-69
2022/04/04 04:11:15;;;;;;;8.77;5.00;;;-0.80;99.90;;;;;;4454756;32;20191;-68
2022/04/04 04:13:47;;;;;;;11.17;5.00;;;-0.80;99.90;;;;;;4455584;32;20500;-68
2022/04/04 04:16:14;;;;;;;8.20;4.67;;;-0.70;99.90;;;;;;4453550;32;20177;-68
2022/04/04 04:18:42;;;;;;;9.60;5.10;;;-0.70;99.90;;;;;;4453056;32;20245;-68
2022/04/04 04:21:11;;;;;;;11.73;5.13;;;-0.70;99.90;;;;;;4453350;32;20245;-68
2022/04/04 04:23:42;;;;;;;8.67;5.00;;;-0.70;99.90;;;;;;4453461;32;20196;-68
2022/04/04 04:26:13;;;;;;;8.70;4.77;;;-0.60;99.90;;;;;;4453281;32;20291;-68
2022/04/04 04:28:42;;;;;;;11.90;6.03;;;-0.60;99.90;;;;;;4453794;32;20201;-69
2022/04/04 04:31:10;;;;;;;13.13;5.50;;;-0.60;99.90;;;;;;4452584;32;20196;-69
2022/04/04 04:33:38;;;;;;;13.13;6.00;;;-0.60;99.90;;;;;;4454618;32;20142;-69
2022/04/04 04:36:05;;;;;;;10.80;5.87;;;-0.50;99.90;;;;;;4452944;32;20169;-69
2022/04/04 04:38:32;;;;;;;12.53;5.97;;;-0.50;99.90;;;;;;4453762;32;20237;-69
2022/04/04 04:41:00;;;;;;;12.17;5.50;;;-0.50;99.90;;;;;;4453757;32;20191;-69
2022/04/04 04:43:27;;;;;;;12.87;5.80;;;-0.50;99.90;;;;;;4453302;32;20563;-68
2022/04/04 04:45:54;;;;;;;11.07;6.10;;;-0.40;99.90;;;;;;4455196;32;20419;-69
2022/04/04 04:48:21;;;;;;;12.67;6.07;;;-0.40;99.90;;;;;;4453337;32;20190;-69
2022/04/04 04:50:49;;;;;;;13.57;5.97;;;-0.40;99.90;;;;;;4454717;32;20134;-69
2022/04/04 04:53:16;;;;;;;10.43;6.00;;;-0.40;99.90;;;;;;4453010;32;20170;-69
2022/04/04 04:55:44;;;;;;;10.17;6.07;;;-0.40;99.90;;;;;;4454635;32;20222;-69
2022/04/04 04:58:12;;;;;;;10.93;5.87;;;-0.30;99.90;;;;;;4453821;32;20219;-69
2022/04/04 05:00:41;;;;;;;13.20;5.90;;;-0.30;99.90;;;;;;4454287;32;20178;-69
2022/04/04 05:03:26;;;;;;;12.07;5.93;;;-0.20;99.90;;;;;;4457503;32;20185;-69
2022/04/04 05:05:55;;;;;;;11.33;5.83;;;-0.20;99.90;;;;;;4456098;32;20255;-69
2022/04/04 05:08:23;;;;;;;11.77;6.20;;;-0.20;99.90;;;;;;4457410;32;20192;-69
2022/04/04 05:10:52;;;;;;;11.23;6.20;;;-0.10;99.90;;;;;;4456241;32;20154;-69
2022/04/04 05:13:21;;;;;;;10.97;5.93;;;-0.10;99.90;;;;;;4455634;32;20192;-69
2022/04/04 05:15:49;;;;;;;10.77;5.97;;;0.00;99.90;;;;;;4456502;32;20239;-69
2022/04/04 05:18:16;;;;;;;11.80;5.97;;;0.00;99.90;;;;;;4455259;32;20245;-69
2022/04/04 05:20:43;;;;;;;14.97;6.50;;;0.10;99.90;;;;;;4454859;32;20178;-69
2022/04/04 05:23:11;;;;;;;11.93;5.80;;;0.10;99.90;;;;;;4456224;32;20276;-69
2022/04/04 05:25:38;;;;;;;12.17;6.13;;;0.10;99.90;;;;;;4457707;32;20172;-69
2022/04/04 05:28:07;;;;;;;11.47;6.40;;;0.20;99.90;;;;;;4455487;32;20177;-69
2022/04/04 05:30:35;;;;;;;12.10;6.00;;;0.30;99.90;;;;;;4455339;32;20204;-69
2022/04/04 05:33:02;;;;;;;13.77;6.57;;;0.30;99.90;;;;;;4455071;32;20194;-69
2022/04/04 05:35:29;;;;;;;11.47;6.23;;;0.30;99.90;;;;;;4455168;32;20508;-69
2022/04/04 05:37:56;;;;;;;12.77;6.40;;;0.40;99.90;;;;;;4456531;32;20626;-69
2022/04/04 05:40:26;;;;;;;12.00;6.60;;;0.40;99.90;;;;;;4454677;32;20193;-69
2022/04/04 05:42:55;;;;;;;15.17;6.73;;;0.50;99.90;;;;;;4454739;32;20197;-69
2022/04/04 05:45:22;;;;;;;9.50;6.10;;;0.60;99.90;;;;;;4456157;32;20189;-69
2022/04/04 05:47:49;;;;;;;12.93;7.03;;;0.70;99.90;;;;;;4455283;32;20250;-69
2022/04/04 05:50:16;;;;;;;14.33;5.97;;;0.70;99.90;;;;;;4454786;32;20193;-69
2022/04/04 05:52:44;;;;;;;12.07;6.60;;;0.80;99.90;;;;;;4455023;32;20170;-68
2022/04/04 05:55:12;;;;;;;13.30;6.93;;;0.70;99.90;;;;;;4455098;32;20224;-69
2022/04/04 05:57:39;;;;;;;14.17;7.40;;;0.60;99.90;;;;;;4455547;32;20185;-69
2022/04/04 06:00:16;;;;;;;13.63;7.37;;;0.60;99.90;;;;;;4456415;32;20186;-69
2022/04/04 06:02:45;;;;;;;11.80;7.27;;;0.60;99.90;;;;;;4454433;32;20173;-69
2022/04/04 06:05:14;;;;;;;12.53;7.60;;;0.70;99.90;;;;;;4456397;32;20170;-69
2022/04/04 06:07:47;;;;;;;14.63;6.83;;;0.80;99.90;;;;;;4455311;32;20165;-69
2022/04/04 06:10:29;;;;;;;15.03;7.03;;;0.90;99.90;;;;;;4454557;32;20258;-69
2022/04/04 06:12:57;;;;;;;13.80;7.20;;;0.90;99.90;;;;;;4456748;32;20164;-69
2022/04/04 06:15:31;;;;;;;13.27;6.87;;;0.90;99.90;;;;;;4454630;32;20205;-69
2022/04/04 06:17:58;;;;;;;11.93;6.40;;;0.90;99.90;;;;;;4456209;32;20146;-69
2022/04/04 06:20:26;;;;;;;13.00;6.90;;;0.90;99.90;;;;;;4453838;32;20228;-69
2022/04/04 06:22:53;;;;;;;14.67;7.27;;;1.00;99.90;;;;;;4454287;32;20413;-70
2022/04/04 06:25:23;;;;;;;12.23;6.97;;;1.10;99.90;;;;;;4456483;32;20162;-69
2022/04/04 06:27:51;;;;;;;13.33;7.27;;;1.20;99.90;;;;;;4454296;32;20173;-69
2022/04/04 06:30:20;;;;;;;13.07;6.87;;;1.20;99.90;;;;;;4456028;32;20441;-69
2022/04/04 06:32:48;;;;;;;14.93;7.70;;;1.30;99.90;;;;;;4455308;32;20150;-69
2022/04/04 06:35:16;;;;;;;13.97;7.40;;;1.60;99.90;;;;;;4454737;32;20500;-69
2022/04/04 06:37:45;;;;;;;16.07;7.57;;;1.80;99.90;;;;;;4454964;32;20166;-69
2022/04/04 06:40:17;;;;;;;17.53;7.10;;;1.80;99.90;;;;;;4454358;32;20241;-70
2022/04/04 06:42:45;;;;;;;12.87;7.57;;;1.70;99.90;;;;;;4453038;32;20184;-68
2022/04/04 06:45:13;;;;;;;14.37;7.30;;;1.50;99.90;;;;;;4453994;32;20228;-69
2022/04/04 06:47:44;;;;;;;14.17;7.30;;;1.40;99.90;;;;;;4455608;32;20222;-68
2022/04/04 06:50:15;;;;;;;14.37;8.60;;;1.20;99.90;;;;;;4454255;32;20685;-68
2022/04/04 06:52:42;;;;;;;15.53;8.93;;;1.00;99.90;;;;;;4453336;32;20256;-68
2022/04/04 06:55:33;;;;;;;14.47;8.83;;;0.90;99.90;;;;;;4455558;32;20139;-68
2022/04/04 06:58:25;;;;;;;16.97;9.17;;;0.90;99.90;;;;;;4453811;32;20409;-67
2022/04/04 07:01:17;;;;;;;14.80;8.93;;;0.80;99.90;;;;;;4378378;32;20210;-68
2022/04/04 07:03:45;;;;;;;14.77;8.63;;;0.80;99.90;;;;;;4379318;32;20187;-69
2022/04/04 07:06:13;;;;;;;14.10;8.97;;;0.80;99.90;;;;;;4392704;32;20201;-69
2022/04/04 07:08:43;;;;;;;16.37;8.70;;;0.80;99.90;;;;;;4379749;32;20197;-71
2022/04/04 07:11:13;;;;;;;14.83;8.83;;;0.90;99.90;;;;;;4378498;32;20187;-69
2022/04/04 07:13:41;;;;;;;16.40;8.80;;;0.90;99.90;;;;;;4392034;32;20147;-68
2022/04/04 07:16:08;;;;;;;16.47;9.27;;;1.10;99.90;;;;;;4379477;32;20211;-69
2022/04/04 07:19:05;;;;;;;17.10;9.07;;;1.20;99.90;;;;;;4391767;32;20229;-69
2022/04/04 07:21:35;;;;;;;15.23;8.83;;;1.10;99.90;;;;;;4378179;32;20238;-70
2022/04/04 07:24:23;;;;;;;17.00;9.30;;;1.20;99.90;;;;;;4392373;32;20488;-70
2022/04/04 07:26:51;;;;;;;17.53;9.57;;;1.40;99.90;;;;;;4334520;33;20227;-70
2022/04/04 07:29:21;;;;;;;14.30;9.03;;;1.50;99.90;;;;;;4345890;33;20160;-68
2022/04/04 07:32:15;;;;;;;16.90;9.47;;;1.50;99.90;;;;;;4333296;33;20177;-69
2022/04/04 07:35:12;;;;;;;15.53;9.33;;;1.60;99.90;;;;;;4342296;33;20223;-69
2022/04/04 07:37:50;;;;;;;17.30;9.87;;;1.60;99.90;;;;;;4326315;33;20223;-70
2022/04/04 07:40:18;;;;;;;15.40;9.13;;;1.70;99.90;;;;;;4334374;33;20479;-70
2022/04/04 07:42:50;;;;;;;17.70;10.17;;;1.80;99.90;;;;;;4332744;33;20180;-70
2022/04/04 07:45:19;;;;;;;17.57;9.77;;;1.80;99.90;;;;;;4347104;33;20176;-71
2022/04/04 07:47:49;;;;;;;17.10;9.80;;;1.90;99.90;;;;;;4346646;33;20169;-70
2022/04/04 07:50:16;;;;;;;14.27;9.80;;;2.10;99.90;;;;;;4333893;33;20176;-70
2022/04/04 07:52:44;;;;;;;14.10;9.47;;;2.20;99.90;;;;;;4345570;33;20173;-71
2022/04/04 07:55:11;;;;;;;16.70;10.00;;;2.40;99.90;;;;;;4324826;33;20244;-70
2022/04/04 07:57:39;;;;;;;16.90;10.10;;;2.60;99.90;;;;;;4334814;33;20203;-71
2022/04/04 08:00:08;;;;;;;15.23;9.93;;;2.80;99.90;;;;;;4335625;33;20180;-71
2022/04/04 08:02:39;;;;;;;17.33;8.93;;;3.10;99.90;;;;;;4335454;33;20177;-70
2022/04/04 08:05:10;;;;;;;15.77;9.70;;;3.20;99.90;;;;;;4376906;32;20163;-70
2022/04/04 08:07:51;;;;;;;13.87;8.93;;;3.10;99.90;;;;;;4378783;32;20175;-70
2022/04/04 08:10:25;;;;;;;14.60;9.70;;;3.30;99.90;;;;;;4378914;32;20382;-71
2022/04/04 08:12:53;;;;;;;12.83;8.53;;;3.40;99.90;;;;;;4391160;32;20513;-71
2022/04/04 08:15:24;;;;;;;15.57;9.20;;;3.50;99.90;;;;;;4426882;32;20559;-71
2022/04/04 08:17:56;;;;;;;15.63;9.10;;;3.70;99.90;;;;;;4438379;32;20579;-70
2022/04/04 08:20:24;;;;;;;12.83;8.53;;;3.70;99.90;;;;;;4439038;32;20146;-70
2022/04/04 08:22:51;;;;;;;15.77;9.10;;;3.70;99.90;;;;;;4438527;32;20170;-70
2022/04/04 08:25:21;;;;;;;12.93;8.40;;;3.80;99.90;;;;;;4438084;32;20474;-70
2022/04/04 08:27:48;;;;;;;12.83;7.97;;;4.00;99.90;;;;;;4438968;32;20430;-70
2022/04/04 08:30:17;;;;;;;14.07;8.27;;;4.00;99.90;;;;;;4440689;32;20177;-71
2022/04/04 08:32:45;;;;;;;14.57;8.47;;;4.10;99.90;;;;;;4438343;32;20188;-71
2022/04/04 08:35:19;;;;;;;13.53;8.10;;;4.60;99.90;;;;;;4444370;32;20526;-71
2022/04/04 08:37:46;;;;;;;14.23;8.37;;;5.10;99.90;;;;;;4443141;32;20395;-71
2022/04/04 08:40:18;;;;;;;10.57;7.57;;;5.60;99.90;;;;;;4444554;32;20225;-71
2022/04/04 08:42:47;;;;;;;9.43;6.63;;;6.00;99.90;;;;;;4444153;32;20232;-71
2022/04/04 08:45:14;;;;;;;16.10;7.90;;;6.40;99.90;;;;;;4443929;32;20193;-71
2022/04/04 08:47:42;;;;;;;14.53;7.63;;;6.50;99.90;;;;;;4443505;32;20235;-71
2022/04/04 08:50:11;;;;;;;11.20;7.80;;;6.70;99.90;;;;;;4442368;32;20208;-71
2022/04/04 08:52:39;;;;;;;16.57;7.37;;;6.80;99.90;;;;;;4444028;32;20178;-71
2022/04/04 08:55:08;;;;;;;9.83;7.27;;;6.60;99.90;;;;;;4443097;32;20200;-71
2022/04/04 08:57:35;;;;;;;15.13;7.87;;;6.50;99.90;;;;;;4444095;32;20196;-70
2022/04/04 09:00:06;;;;;;;10.97;6.60;;;6.30;99.90;;;;;;4444447;32;20256;-70
2022/04/04 09:02:33;;;;;;;11.50;6.70;;;6.20;99.90;;;;;;4443812;32;20224;-71
2022/04/04 09:05:05;;;;;;;10.67;6.87;;;5.80;99.90;;;;;;4444042;32;20172;-71
2022/04/04 09:07:32;;;;;;;13.47;7.37;;;6.00;99.90;;;;;;4443649;32;20477;-71
2022/04/04 09:10:00;;;;;;;11.90;6.80;;;6.30;99.90;;;;;;4442356;32;20303;-71
2022/04/04 09:12:27;;;;;;;11.27;7.30;;;6.90;99.90;;;;;;4443671;32;20170;-71
2022/04/04 09:14:57;;;;;;;12.20;7.43;;;7.10;99.90;;;;;;4443290;32;20175;-71
2022/04/04 09:17:28;;;;;;;11.63;7.10;;;7.40;99.90;;;;;;4442549;32;20250;-71
2022/04/04 09:19:57;;;;;;;12.23;7.43;;;7.50;99.90;;;;;;4443874;32;20176;-71
2022/04/04 09:22:27;;;;;;;11.53;7.37;;;7.60;99.90;;;;;;4443864;32;20184;-70
2022/04/04 09:24:57;;;;;;;11.23;7.50;;;7.20;99.90;;;;;;4442965;32;20176;-71
2022/04/04 09:27:31;;;;;;;13.07;7.90;;;6.90;99.90;;;;;;4442656;32;20245;-71
2022/04/04 09:30:05;;;;;;;12.57;8.10;;;7.10;99.90;;;;;;4443996;32;20180;-71
2022/04/04 09:32:38;;;;;;;10.80;7.60;;;6.80;99.90;;;;;;4442277;32;20208;-71
2022/04/04 09:35:13;;;;;;;15.37;7.57;;;6.50;99.90;;;;;;4443564;32;20209;-71
2022/04/04 09:37:46;;;;;;;13.07;8.30;;;6.50;99.90;;;;;;4442446;32;20238;-71
2022/04/04 09:40:24;;;;;;;10.63;7.40;;;6.50;99.90;;;;;;4443579;32;20557;-72
2022/04/04 09:42:52;;;;;;;11.73;7.57;;;6.40;99.90;;;;;;4444371;32;20532;-71
2022/04/04 09:45:26;;;;;;;11.50;7.83;;;6.30;99.90;;;;;;4440250;32;20523;-71
2022/04/04 09:47:58;;;;;;;13.20;7.30;;;6.30;99.90;;;;;;4440778;32;20216;-71
2022/04/04 09:50:39;;;;;;;14.53;7.90;;;6.50;99.90;;;;;;4440252;32;20423;-71
2022/04/04 09:53:19;;;;;;;12.10;8.17;;;6.70;99.90;;;;;;4440977;32;20164;-71
2022/04/04 09:55:55;;;;;;;11.67;8.10;;;7.00;99.90;;;;;;4441402;32;20192;-71
2022/04/04 09:58:30;;;;;;;10.80;7.30;;;6.90;99.90;;;;;;4439277;32;20497;-71
2022/04/04 10:01:00;;;;;;;12.47;7.57;;;7.40;99.90;;;;;;4441823;32;20169;-70
2022/04/04 10:03:31;;;;;;;10.70;7.80;;;7.40;99.90;;;;;;4439557;32;20241;-71
2022/04/04 10:06:32;;;;;;;10.37;7.57;;;7.30;99.90;;;;;;4440625;32;20379;-71
2022/04/04 10:09:03;;;;;;;12.17;7.77;;;7.50;99.90;;;;;;4428937;32;20245;-71
2022/04/04 10:11:34;;;;;;;11.20;6.63;;;7.90;99.90;;;;;;4426748;32;20474;-71
2022/04/04 10:14:01;;;;;;;11.60;7.60;;;8.40;99.90;;;;;;4439277;32;20609;-71
2022/04/04 10:16:33;;;;;;;11.13;7.10;;;8.80;99.90;;;;;;4440043;32;20178;-71
2022/04/04 10:19:01;;;;;;;9.90;6.73;;;8.80;99.90;;;;;;4439129;32;20445;-71
2022/04/04 10:21:28;;;;;;;12.77;7.33;;;8.80;99.90;;;;;;4439541;32;20438;-71
2022/04/04 10:23:59;;;;;;;11.57;7.43;;;8.70;99.90;;;;;;4440585;32;20175;-71
2022/04/04 10:26:37;;;;;;;12.80;6.97;;;8.70;99.90;;;;;;4440137;32;20207;-71
2022/04/04 10:29:12;;;;;;;9.07;6.80;;;8.30;99.90;;;;;;4426808;32;20166;-71
2022/04/04 10:31:43;;;;;;;9.67;6.90;;;8.20;99.90;;;;;;4440745;32;20195;-71
2022/04/04 10:34:22;;;;;;;11.20;6.87;;;7.90;99.90;;;;;;4439775;32;20481;-71
2022/04/04 10:37:02;;;;;;;11.07;6.77;;;7.40;99.90;;;;;;4439177;32;20174;-71
2022/04/04 10:39:48;;;;;;;10.10;6.60;;;7.20;99.90;;;;;;4438419;32;20476;-70
2022/04/04 10:42:28;;;;;;;10.83;7.23;;;7.40;99.90;;;;;;4438344;32;20182;-71
2022/04/04 10:45:12;;;;;;;11.43;7.10;;;7.40;99.90;;;;;;4440275;32;20182;-71
2022/04/04 10:48:01;;;;;;;10.10;6.37;;;8.00;99.90;;;;;;4440552;32;20221;-71
2022/04/04 10:50:33;;;;;;;8.53;6.33;;;7.90;99.90;;;;;;4438967;32;20520;-71
2022/04/04 10:53:08;;;;;;;13.70;6.73;;;8.30;99.90;;;;;;4440394;32;20455;-70
2022/04/04 10:55:40;;;;;;;8.90;6.07;;;8.50;99.90;;;;;;4438445;32;20448;-71
2022/04/04 10:58:25;;;;;;;9.23;5.90;;;9.00;99.90;;;;;;4439255;32;20438;-71
2022/04/04 11:01:15;;;;;;;7.97;5.73;;;9.40;99.90;;;;;;4439324;32;20235;-71
2022/04/04 11:03:52;;;;;;;9.40;6.10;;;9.70;99.90;;;;;;4438866;32;20212;-71
2022/04/04 11:09:31;;;;;;;7.03;5.77;;;8.40;99.90;;;;;;4439256;32;20252;-71
2022/04/04 11:12:14;;;;;;;12.27;5.97;;;8.00;99.90;;;;;;4435619;32;20197;-71
2022/04/04 11:14:57;;;;;;;9.83;6.00;;;8.00;99.90;;;;;;4438829;32;20538;-71
2022/04/04 11:20:33;;;;;;;8.07;6.00;;;8.30;99.90;;;;;;4394303;32;20487;-71
2022/04/04 11:23:09;;;;;;;9.63;6.17;;;8.10;99.90;;;;;;4394732;32;20190;-71
2022/04/04 11:26:08;;;;;;;8.40;5.80;;;7.60;99.90;;;;;;4407445;32;20147;-69
2022/04/04 11:28:38;;;;;;;8.73;5.87;;;7.30;99.90;;;;;;4393737;32;20455;-69
2022/04/04 11:31:13;;;;;;;8.83;6.10;;;7.60;99.90;;;;;;4394026;32;20163;-69
2022/04/04 11:34:00;;;;;;;9.47;5.77;;;7.70;99.90;;;;;;4395382;32;20220;-69
2022/04/04 11:36:30;;;;;;;8.47;5.77;;;7.80;99.90;;;;;;4393596;32;20528;-68
2022/04/04 11:39:03;;;;;;;9.20;6.03;;;7.80;99.90;;;;;;4381588;32;20174;-69
2022/04/04 11:41:36;;;;;;;7.83;5.70;;;7.90;99.90;;;;;;4406799;32;20147;-69
2022/04/04 11:44:27;;;;;;;9.50;6.43;;;8.20;99.90;;;;;;4406190;32;20583;-69
2022/04/04 11:47:11;;;;;;;10.47;6.57;;;8.40;99.90;;;;;;4393700;32;20200;-69
2022/04/04 11:49:42;;;;;;;11.37;6.53;;;8.30;99.90;;;;;;4393633;32;20602;-69
2022/04/04 11:52:18;;;;;;;8.77;6.27;;;8.00;99.90;;;;;;4393650;32;20544;-69
2022/04/04 11:55:08;;;;;;;9.10;6.63;;;7.90;99.90;;;;;;4406606;32;20143;-69
2022/04/04 11:57:47;;;;;;;9.70;6.43;;;8.10;99.90;;;;;;4425666;32;20173;-69
2022/04/04 12:00:32;;;;;;;10.23;6.80;;;7.90;99.90;;;;;;4437991;32;20529;-68
2022/04/04 12:03:12;;;;;;;10.30;6.67;;;7.70;99.90;;;;;;4427044;32;20233;-69
2022/04/04 12:05:41;;;;;;;10.13;6.97;;;7.90;99.90;;;;;;4439613;32;20477;-69
2022/04/04 12:08:12;;;;;;;13.83;6.77;;;8.20;99.90;;;;;;4437387;32;20178;-69
2022/04/04 12:10:45;;;;;;;10.97;6.40;;;8.30;99.90;;;;;;4438418;32;20234;-69
2022/04/04 12:13:18;;;;;;;10.33;6.47;;;8.40;99.90;;;;;;4439024;32;20223;-69
2022/04/04 12:15:49;;;;;;;10.83;6.60;;;8.50;99.90;;;;;;4440688;32;20146;-70
2022/04/04 12:18:23;;;;;;;9.47;6.30;;;8.50;99.90;;;;;;4437494;32;20257;-69
2022/04/04 12:20:53;;;;;;;11.60;6.67;;;8.80;99.90;;;;;;4438378;32;20169;-69
2022/04/04 12:26:15;;;;;;;9.60;7.53;;;8.90;99.90;;;;;;4437931;32;20448;-70
2022/04/04 12:28:53;;;;;;;9.70;7.27;;;8.50;99.90;;;;;;4437610;32;20185;-70
2022/04/04 12:31:25;;;;;;;11.93;7.80;;;8.50;99.90;;;;;;4439136;32;20261;-70
2022/04/04 12:34:09;;;;;;;12.47;7.70;;;8.50;99.90;;;;;;4437169;32;20167;-70
2022/04/04 12:36:43;;;;;;;12.73;7.50;;;8.30;99.90;;;;;;4439084;32;20182;-69
2022/04/04 12:39:18;;;;;;;10.27;7.40;;;9.00;99.90;;;;;;4440187;32;20169;-69
2022/04/04 12:41:51;;;;;;;11.83;7.90;;;9.20;99.90;;;;;;4439086;32;20154;-70
2022/04/04 12:44:26;;;;;;;12.67;6.83;;;9.90;99.90;;;;;;4437163;32;20504;-70
2022/04/04 12:47:06;;;;;;;11.43;7.53;;;10.40;99.90;;;;;;4439050;32;20411;-66
2022/04/04 12:49:34;;;;;;;10.50;6.83;;;10.30;99.90;;;;;;4437603;32;20174;-67
2022/04/04 12:52:21;;;;;;;10.67;7.10;;;11.40;98.30;;;;;;4438314;32;20238;-67
2022/04/04 12:54:49;;;;;;;11.47;6.40;;;12.50;92.90;;;;;;4437565;32;20174;-71
2022/04/04 12:57:37;;;;;;;8.77;6.37;;;12.80;89.00;;;;;;4438252;32;20190;-70
2022/04/04 13:00:05;;;;;;;10.03;6.43;;;13.10;84.20;;;;;;4452852;32;20197;-70
2022/04/04 13:02:37;;;;;;;7.73;6.27;;;13.60;80.10;;;;;;4455566;32;20533;-70
2022/04/04 13:05:16;;;;;;;9.40;6.03;;;13.00;79.60;;;;;;4453091;32;20200;-69
2022/04/04 13:08:01;;;;;;;8.70;6.50;;;12.10;82.60;;;;;;4452439;32;20325;-70
2022/04/04 13:10:28;;;;;;;10.23;6.53;;;12.00;82.50;;;;;;4453084;32;20250;-69
2022/04/04 13:13:09;;;;;;;9.30;6.30;;;12.40;83.30;;;;;;4453543;32;20200;-70
2022/04/04 13:15:38;;;;;;;11.07;6.77;;;12.40;82.00;;;;;;4453074;32;20174;-70
2022/04/04 13:18:09;;;;;;;10.40;7.50;;;12.70;81.40;;;;;;4453533;32;20549;-71
2022/04/04 13:20:36;;;;;;;9.60;6.40;;;12.70;80.70;;;;;;4455401;32;20443;-70
2022/04/04 13:23:09;;;;;;;8.70;6.63;;;12.80;80.30;;;;;;4456240;32;20687;-72